sensor_id;sensor_type;location;lat;lon;timestamp;P1;durP1;ratioP1;P2;durP2;ratioP2
38182;SDS011;23991;52.430;10.586;2023-06-14T00:00:19;4.28;;;2.50;;
38182;SDS011;23991;52.430;10.586;2023-06-14T00:02:45;2.80;;;2.30;;
38182;SDS011;23991;52.430;10.586;2023-06-14T00:05:11;3.88;;;2.17;;
38182;SDS011;23991;52.430;10.586;2023-06-14T00:07:38;3.78;;;2.30;;
38182;SDS011;23991;52.430;10.586;2023-06-14T00:10:08;3.90;;;2.17;;
38182;SDS011;23991;52.430;10.586;2023-06-14T00:12:34;3.45;;;2.10;;
38182;SDS011;23991;52.430;10.586;2023-06-14T00:15:01;3.22;;;1.90;;
38182;SDS011;23991;52.430;10.586;2023-06-14T00:17:27;7.35;;;2.47;;
38182;SDS011;23991;52.430;10.586;2023-06-14T00:19:55;3.10;;;2.28;;
38182;SDS011;23991;52.430;10.586;2023-06-14T00:22:22;2.92;;;2.08;;
38182;SDS011;23991;52.430;10.586;2023-06-14T00:24:49;17.08;;;2.72;;
38182;SDS011;23991;52.430;10.586;2023-06-14T00:27:18;8.20;;;2.28;;
38182;SDS011;23991;52.430;10.586;2023-06-14T00:29:43;2.78;;;2.00;;
38182;SDS011;23991;52.430;10.586;2023-06-14T00:32:09;4.90;;;1.90;;
38182;SDS011;23991;52.430;10.586;2023-06-14T00:34:35;4.07;;;2.35;;
38182;SDS011;23991;52.430;10.586;2023-06-14T00:37:00;5.85;;;2.35;;
38182;SDS011;23991;52.430;10.586;2023-06-14T00:39:26;3.92;;;2.17;;
38182;SDS011;23991;52.430;10.586;2023-06-14T00:41:52;4.22;;;2.00;;
38182;SDS011;23991;52.430;10.586;2023-06-14T00:44:18;4.15;;;2.50;;
38182;SDS011;23991;52.430;10.586;2023-06-14T00:46:46;4.03;;;2.13;;
38182;SDS011;23991;52.430;10.586;2023-06-14T00:49:15;7.38;;;2.70;;
38182;SDS011;23991;52.430;10.586;2023-06-14T00:51:42;4.75;;;2.22;;
38182;SDS011;23991;52.430;10.586;2023-06-14T00:54:08;5.88;;;2.13;;
38182;SDS011;23991;52.430;10.586;2023-06-14T00:56:37;3.88;;;2.20;;
38182;SDS011;23991;52.430;10.586;2023-06-14T00:59:04;3.88;;;2.30;;
38182;SDS011;23991;52.430;10.586;2023-06-14T01:01:30;4.72;;;2.20;;
38182;SDS011;23991;52.430;10.586;2023-06-14T01:03:59;4.95;;;2.13;;
38182;SDS011;23991;52.430;10.586;2023-06-14T01:09:15;3.53;;;2.50;;
38182;SDS011;23991;52.430;10.586;2023-06-14T01:11:50;6.90;;;2.40;;
38182;SDS011;23991;52.430;10.586;2023-06-14T01:14:25;6.38;;;2.28;;
38182;SDS011;23991;52.430;10.586;2023-06-14T01:16:56;5.88;;;2.28;;
38182;SDS011;23991;52.430;10.586;2023-06-14T01:19:24;2.88;;;2.10;;
38182;SDS011;23991;52.430;10.586;2023-06-14T01:21:50;3.20;;;1.88;;
38182;SDS011;23991;52.430;10.586;2023-06-14T01:24:17;5.97;;;2.30;;
38182;SDS011;23991;52.430;10.586;2023-06-14T01:26:53;5.05;;;1.98;;
38182;SDS011;23991;52.430;10.586;2023-06-14T01:29:21;6.45;;;2.45;;
38182;SDS011;23991;52.430;10.586;2023-06-14T01:31:50;4.97;;;1.95;;
38182;SDS011;23991;52.430;10.586;2023-06-14T01:34:16;4.25;;;2.25;;
38182;SDS011;23991;52.430;10.586;2023-06-14T01:36:43;3.45;;;2.10;;
38182;SDS011;23991;52.430;10.586;2023-06-14T01:39:11;4.88;;;2.00;;
38182;SDS011;23991;52.430;10.586;2023-06-14T01:41:40;3.83;;;2.28;;
38182;SDS011;23991;52.430;10.586;2023-06-14T01:44:06;3.45;;;1.95;;
38182;SDS011;23991;52.430;10.586;2023-06-14T01:46:32;4.03;;;1.80;;
38182;SDS011;23991;52.430;10.586;2023-06-14T01:48:58;8.13;;;2.33;;
38182;SDS011;23991;52.430;10.586;2023-06-14T01:51:24;4.75;;;2.10;;
38182;SDS011;23991;52.430;10.586;2023-06-14T01:53:50;5.65;;;2.30;;
38182;SDS011;23991;52.430;10.586;2023-06-14T01:56:15;3.35;;;2.08;;
38182;SDS011;23991;52.430;10.586;2023-06-14T01:58:41;5.05;;;2.13;;
38182;SDS011;23991;52.430;10.586;2023-06-14T02:01:07;5.50;;;2.00;;
38182;SDS011;23991;52.430;10.586;2023-06-14T02:03:33;3.30;;;2.10;;
38182;SDS011;23991;52.430;10.586;2023-06-14T02:05:59;3.47;;;2.05;;
38182;SDS011;23991;52.430;10.586;2023-06-14T02:08:24;3.67;;;2.40;;
38182;SDS011;23991;52.430;10.586;2023-06-14T02:10:50;6.22;;;2.30;;
38182;SDS011;23991;52.430;10.586;2023-06-14T02:13:16;4.55;;;1.92;;
38182;SDS011;23991;52.430;10.586;2023-06-14T02:15:42;4.07;;;2.20;;
38182;SDS011;23991;52.430;10.586;2023-06-14T02:18:09;4.38;;;2.13;;
38182;SDS011;23991;52.430;10.586;2023-06-14T02:20:35;8.85;;;2.10;;
38182;SDS011;23991;52.430;10.586;2023-06-14T02:23:01;4.57;;;2.05;;
38182;SDS011;23991;52.430;10.586;2023-06-14T02:25:26;2.90;;;2.10;;
38182;SDS011;23991;52.430;10.586;2023-06-14T02:27:55;3.45;;;2.10;;
38182;SDS011;23991;52.430;10.586;2023-06-14T02:30:20;2.75;;;1.90;;
38182;SDS011;23991;52.430;10.586;2023-06-14T02:32:46;2.90;;;1.92;;
38182;SDS011;23991;52.430;10.586;2023-06-14T02:35:13;3.60;;;2.42;;
38182;SDS011;23991;52.430;10.586;2023-06-14T02:37:39;3.03;;;1.98;;
38182;SDS011;23991;52.430;10.586;2023-06-14T02:40:05;4.60;;;2.03;;
38182;SDS011;23991;52.430;10.586;2023-06-14T02:42:31;4.10;;;2.40;;
38182;SDS011;23991;52.430;10.586;2023-06-14T02:44:57;4.10;;;2.60;;
38182;SDS011;23991;52.430;10.586;2023-06-14T02:47:22;5.57;;;2.00;;
38182;SDS011;23991;52.430;10.586;2023-06-14T02:49:49;3.17;;;1.98;;
38182;SDS011;23991;52.430;10.586;2023-06-14T02:52:15;3.42;;;1.88;;
38182;SDS011;23991;52.430;10.586;2023-06-14T02:54:40;5.35;;;2.15;;
38182;SDS011;23991;52.430;10.586;2023-06-14T02:57:06;3.05;;;2.20;;
38182;SDS011;23991;52.430;10.586;2023-06-14T02:59:33;5.63;;;2.08;;
38182;SDS011;23991;52.430;10.586;2023-06-14T03:01:59;5.57;;;2.25;;
38182;SDS011;23991;52.430;10.586;2023-06-14T03:04:24;4.57;;;2.20;;
38182;SDS011;23991;52.430;10.586;2023-06-14T03:06:51;4.93;;;2.00;;
38182;SDS011;23991;52.430;10.586;2023-06-14T03:09:18;4.30;;;2.47;;
38182;SDS011;23991;52.430;10.586;2023-06-14T03:11:44;6.20;;;2.30;;
38182;SDS011;23991;52.430;10.586;2023-06-14T03:14:10;2.45;;;1.63;;
38182;SDS011;23991;52.430;10.586;2023-06-14T03:16:36;6.20;;;2.88;;
38182;SDS011;23991;52.430;10.586;2023-06-14T03:19:02;3.35;;;2.38;;
38182;SDS011;23991;52.430;10.586;2023-06-14T03:21:28;3.03;;;1.77;;
38182;SDS011;23991;52.430;10.586;2023-06-14T03:23:53;3.58;;;2.10;;
38182;SDS011;23991;52.430;10.586;2023-06-14T03:26:19;3.45;;;1.80;;
38182;SDS011;23991;52.430;10.586;2023-06-14T03:28:45;4.30;;;2.45;;
38182;SDS011;23991;52.430;10.586;2023-06-14T03:31:11;3.65;;;2.13;;
38182;SDS011;23991;52.430;10.586;2023-06-14T03:33:37;5.30;;;2.13;;
38182;SDS011;23991;52.430;10.586;2023-06-14T03:36:03;3.20;;;2.28;;
38182;SDS011;23991;52.430;10.586;2023-06-14T03:38:29;4.13;;;2.22;;
38182;SDS011;23991;52.430;10.586;2023-06-14T03:40:54;4.63;;;1.75;;
38182;SDS011;23991;52.430;10.586;2023-06-14T03:43:20;4.15;;;2.00;;
38182;SDS011;23991;52.430;10.586;2023-06-14T03:45:46;6.53;;;3.55;;
38182;SDS011;23991;52.430;10.586;2023-06-14T03:48:11;6.82;;;2.10;;
38182;SDS011;23991;52.430;10.586;2023-06-14T03:50:37;4.93;;;2.10;;
38182;SDS011;23991;52.430;10.586;2023-06-14T03:53:03;3.03;;;2.10;;
38182;SDS011;23991;52.430;10.586;2023-06-14T03:55:29;5.00;;;2.05;;
38182;SDS011;23991;52.430;10.586;2023-06-14T03:57:56;4.07;;;2.13;;
38182;SDS011;23991;52.430;10.586;2023-06-14T04:00:22;3.08;;;1.85;;
38182;SDS011;23991;52.430;10.586;2023-06-14T04:02:48;3.70;;;2.00;;
38182;SDS011;23991;52.430;10.586;2023-06-14T04:05:13;3.25;;;2.15;;
38182;SDS011;23991;52.430;10.586;2023-06-14T04:07:41;4.22;;;1.90;;
38182;SDS011;23991;52.430;10.586;2023-06-14T04:10:10;3.78;;;2.10;;
38182;SDS011;23991;52.430;10.586;2023-06-14T04:12:37;6.72;;;2.10;;
38182;SDS011;23991;52.430;10.586;2023-06-14T04:15:03;6.38;;;2.10;;
38182;SDS011;23991;52.430;10.586;2023-06-14T04:17:30;3.05;;;2.15;;
38182;SDS011;23991;52.430;10.586;2023-06-14T04:19:58;4.47;;;2.00;;
38182;SDS011;23991;52.430;10.586;2023-06-14T04:22:24;4.80;;;2.00;;
38182;SDS011;23991;52.430;10.586;2023-06-14T04:24:53;4.35;;;1.80;;
38182;SDS011;23991;52.430;10.586;2023-06-14T04:27:21;3.72;;;2.10;;
38182;SDS011;23991;52.430;10.586;2023-06-14T04:29:54;3.03;;;2.05;;
38182;SDS011;23991;52.430;10.586;2023-06-14T04:32:24;8.90;;;2.10;;
38182;SDS011;23991;52.430;10.586;2023-06-14T04:34:52;5.18;;;2.33;;
38182;SDS011;23991;52.430;10.586;2023-06-14T04:39:47;4.43;;;2.03;;
38182;SDS011;23991;52.430;10.586;2023-06-14T04:42:13;3.78;;;2.28;;
38182;SDS011;23991;52.430;10.586;2023-06-14T04:44:41;4.80;;;2.25;;
38182;SDS011;23991;52.430;10.586;2023-06-14T04:47:08;5.05;;;2.35;;
38182;SDS011;23991;52.430;10.586;2023-06-14T04:49:37;4.60;;;2.42;;
38182;SDS011;23991;52.430;10.586;2023-06-14T04:52:05;3.60;;;1.90;;
38182;SDS011;23991;52.430;10.586;2023-06-14T04:54:31;4.88;;;2.10;;
38182;SDS011;23991;52.430;10.586;2023-06-14T04:56:58;4.43;;;2.28;;
38182;SDS011;23991;52.430;10.586;2023-06-14T04:59:23;3.65;;;2.22;;
38182;SDS011;23991;52.430;10.586;2023-06-14T05:01:49;5.75;;;2.30;;
38182;SDS011;23991;52.430;10.586;2023-06-14T05:04:15;3.35;;;2.20;;
38182;SDS011;23991;52.430;10.586;2023-06-14T05:06:44;3.80;;;2.53;;
38182;SDS011;23991;52.430;10.586;2023-06-14T05:09:13;4.28;;;2.67;;
38182;SDS011;23991;52.430;10.586;2023-06-14T05:11:40;3.88;;;2.15;;
38182;SDS011;23991;52.430;10.586;2023-06-14T05:14:08;6.85;;;2.60;;
38182;SDS011;23991;52.430;10.586;2023-06-14T05:16:35;4.13;;;2.55;;
38182;SDS011;23991;52.430;10.586;2023-06-14T05:19:00;5.15;;;2.50;;
38182;SDS011;23991;52.430;10.586;2023-06-14T05:21:26;6.18;;;2.97;;
38182;SDS011;23991;52.430;10.586;2023-06-14T05:23:51;5.43;;;3.35;;
38182;SDS011;23991;52.430;10.586;2023-06-14T05:26:18;3.75;;;2.40;;
38182;SDS011;23991;52.430;10.586;2023-06-14T05:28:44;4.43;;;2.40;;
38182;SDS011;23991;52.430;10.586;2023-06-14T05:31:10;4.43;;;2.30;;
38182;SDS011;23991;52.430;10.586;2023-06-14T05:33:35;4.47;;;2.50;;
38182;SDS011;23991;52.430;10.586;2023-06-14T05:36:01;3.83;;;2.28;;
38182;SDS011;23991;52.430;10.586;2023-06-14T05:38:27;4.97;;;2.50;;
38182;SDS011;23991;52.430;10.586;2023-06-14T05:40:52;4.45;;;2.22;;
38182;SDS011;23991;52.430;10.586;2023-06-14T05:43:19;9.63;;;2.33;;
38182;SDS011;23991;52.430;10.586;2023-06-14T05:45:44;4.95;;;2.35;;
38182;SDS011;23991;52.430;10.586;2023-06-14T05:48:10;3.47;;;2.33;;
38182;SDS011;23991;52.430;10.586;2023-06-14T05:50:35;6.32;;;2.63;;
38182;SDS011;23991;52.430;10.586;2023-06-14T05:53:01;8.07;;;2.78;;
38182;SDS011;23991;52.430;10.586;2023-06-14T05:55:26;4.47;;;2.63;;
38182;SDS011;23991;52.430;10.586;2023-06-14T05:57:52;3.20;;;2.30;;
38182;SDS011;23991;52.430;10.586;2023-06-14T06:00:17;4.63;;;2.60;;
38182;SDS011;23991;52.430;10.586;2023-06-14T06:02:44;4.47;;;2.63;;
38182;SDS011;23991;52.430;10.586;2023-06-14T06:05:11;4.60;;;2.92;;
38182;SDS011;23991;52.430;10.586;2023-06-14T06:07:37;3.90;;;2.55;;
38182;SDS011;23991;52.430;10.586;2023-06-14T06:10:05;6.40;;;3.05;;
38182;SDS011;23991;52.430;10.586;2023-06-14T06:12:31;4.30;;;2.67;;
38182;SDS011;23991;52.430;10.586;2023-06-14T06:14:57;8.30;;;2.95;;
38182;SDS011;23991;52.430;10.586;2023-06-14T06:17:24;4.50;;;2.60;;
38182;SDS011;23991;52.430;10.586;2023-06-14T06:19:50;5.40;;;2.70;;
38182;SDS011;23991;52.430;10.586;2023-06-14T06:22:16;6.63;;;2.90;;
38182;SDS011;23991;52.430;10.586;2023-06-14T06:24:42;5.72;;;2.97;;
38182;SDS011;23991;52.430;10.586;2023-06-14T06:27:07;4.38;;;2.75;;
38182;SDS011;23991;52.430;10.586;2023-06-14T06:29:33;4.38;;;2.90;;
38182;SDS011;23991;52.430;10.586;2023-06-14T06:32:00;4.68;;;3.00;;
38182;SDS011;23991;52.430;10.586;2023-06-14T06:34:26;4.60;;;2.83;;
38182;SDS011;23991;52.430;10.586;2023-06-14T06:36:52;4.13;;;2.60;;
38182;SDS011;23991;52.430;10.586;2023-06-14T06:39:17;6.50;;;2.88;;
38182;SDS011;23991;52.430;10.586;2023-06-14T06:41:43;4.50;;;2.50;;
38182;SDS011;23991;52.430;10.586;2023-06-14T06:44:08;6.45;;;2.95;;
38182;SDS011;23991;52.430;10.586;2023-06-14T06:46:38;5.90;;;2.58;;
38182;SDS011;23991;52.430;10.586;2023-06-14T06:49:07;3.13;;;2.25;;
38182;SDS011;23991;52.430;10.586;2023-06-14T06:51:34;4.32;;;2.42;;
38182;SDS011;23991;52.430;10.586;2023-06-14T06:54:01;5.75;;;2.40;;
38182;SDS011;23991;52.430;10.586;2023-06-14T06:56:27;5.18;;;2.35;;
38182;SDS011;23991;52.430;10.586;2023-06-14T06:58:53;5.53;;;2.60;;
38182;SDS011;23991;52.430;10.586;2023-06-14T07:01:18;3.45;;;2.20;;
38182;SDS011;23991;52.430;10.586;2023-06-14T07:03:44;4.30;;;2.50;;
38182;SDS011;23991;52.430;10.586;2023-06-14T07:06:10;4.82;;;2.42;;
38182;SDS011;23991;52.430;10.586;2023-06-14T07:08:36;4.45;;;2.47;;
38182;SDS011;23991;52.430;10.586;2023-06-14T07:11:03;3.58;;;2.28;;
38182;SDS011;23991;52.430;10.586;2023-06-14T07:13:29;2.85;;;1.98;;
38182;SDS011;23991;52.430;10.586;2023-06-14T07:15:57;7.20;;;2.80;;
38182;SDS011;23991;52.430;10.586;2023-06-14T07:18:23;4.43;;;2.22;;
38182;SDS011;23991;52.430;10.586;2023-06-14T07:20:49;6.75;;;2.63;;
38182;SDS011;23991;52.430;10.586;2023-06-14T07:23:15;3.78;;;2.33;;
38182;SDS011;23991;52.430;10.586;2023-06-14T07:25:40;6.13;;;2.55;;
38182;SDS011;23991;52.430;10.586;2023-06-14T07:28:06;3.13;;;2.20;;
38182;SDS011;23991;52.430;10.586;2023-06-14T07:30:32;3.40;;;2.10;;
38182;SDS011;23991;52.430;10.586;2023-06-14T07:32:58;2.60;;;2.17;;
38182;SDS011;23991;52.430;10.586;2023-06-14T07:35:23;3.17;;;2.20;;
38182;SDS011;23991;52.430;10.586;2023-06-14T07:37:49;3.60;;;2.28;;
38182;SDS011;23991;52.430;10.586;2023-06-14T07:40:14;3.10;;;2.00;;
38182;SDS011;23991;52.430;10.586;2023-06-14T07:42:40;4.57;;;2.00;;
38182;SDS011;23991;52.430;10.586;2023-06-14T07:45:06;2.53;;;1.95;;
38182;SDS011;23991;52.430;10.586;2023-06-14T07:47:32;3.88;;;2.10;;
38182;SDS011;23991;52.430;10.586;2023-06-14T07:49:58;3.13;;;2.38;;
38182;SDS011;23991;52.430;10.586;2023-06-14T07:52:23;3.20;;;2.20;;
38182;SDS011;23991;52.430;10.586;2023-06-14T07:54:49;4.20;;;2.42;;
38182;SDS011;23991;52.430;10.586;2023-06-14T07:57:15;6.35;;;2.85;;
38182;SDS011;23991;52.430;10.586;2023-06-14T07:59:41;2.97;;;2.08;;
38182;SDS011;23991;52.430;10.586;2023-06-14T08:02:06;9.63;;;2.30;;
38182;SDS011;23991;52.430;10.586;2023-06-14T08:04:32;7.10;;;2.33;;
38182;SDS011;23991;52.430;10.586;2023-06-14T08:06:58;4.63;;;2.28;;
38182;SDS011;23991;52.430;10.586;2023-06-14T08:09:24;2.50;;;1.95;;
38182;SDS011;23991;52.430;10.586;2023-06-14T08:11:50;3.00;;;2.08;;
38182;SDS011;23991;52.430;10.586;2023-06-14T08:14:16;3.45;;;1.98;;
38182;SDS011;23991;52.430;10.586;2023-06-14T08:16:41;6.53;;;2.58;;
38182;SDS011;23991;52.430;10.586;2023-06-14T08:19:07;2.78;;;2.10;;
38182;SDS011;23991;52.430;10.586;2023-06-14T08:21:33;5.45;;;1.90;;
38182;SDS011;23991;52.430;10.586;2023-06-14T08:24:01;4.25;;;2.10;;
38182;SDS011;23991;52.430;10.586;2023-06-14T08:26:27;6.07;;;2.22;;
38182;SDS011;23991;52.430;10.586;2023-06-14T08:31:22;3.72;;;2.28;;
38182;SDS011;23991;52.430;10.586;2023-06-14T08:33:49;4.57;;;2.15;;
38182;SDS011;23991;52.430;10.586;2023-06-14T08:36:14;4.75;;;2.20;;
38182;SDS011;23991;52.430;10.586;2023-06-14T08:38:40;3.53;;;2.30;;
38182;SDS011;23991;52.430;10.586;2023-06-14T08:41:05;4.53;;;2.42;;
38182;SDS011;23991;52.430;10.586;2023-06-14T08:43:31;3.50;;;2.70;;
38182;SDS011;23991;52.430;10.586;2023-06-14T08:45:58;5.28;;;2.83;;
38182;SDS011;23991;52.430;10.586;2023-06-14T08:48:28;2.90;;;2.30;;
38182;SDS011;23991;52.430;10.586;2023-06-14T08:50:57;3.33;;;2.30;;
38182;SDS011;23991;52.430;10.586;2023-06-14T08:53:29;3.45;;;2.05;;
38182;SDS011;23991;52.430;10.586;2023-06-14T08:55:57;3.53;;;2.25;;
38182;SDS011;23991;52.430;10.586;2023-06-14T08:58:26;3.88;;;2.30;;
38182;SDS011;23991;52.430;10.586;2023-06-14T09:00:54;2.95;;;1.90;;
38182;SDS011;23991;52.430;10.586;2023-06-14T09:03:20;4.25;;;2.05;;
38182;SDS011;23991;52.430;10.586;2023-06-14T09:05:47;3.45;;;2.10;;
38182;SDS011;23991;52.430;10.586;2023-06-14T09:08:12;2.97;;;2.40;;
38182;SDS011;23991;52.430;10.586;2023-06-14T09:10:38;4.43;;;2.17;;
38182;SDS011;23991;52.430;10.586;2023-06-14T09:13:05;4.28;;;2.00;;
38182;SDS011;23991;52.430;10.586;2023-06-14T09:15:31;5.55;;;2.20;;
38182;SDS011;23991;52.430;10.586;2023-06-14T09:17:58;3.83;;;2.00;;
38182;SDS011;23991;52.430;10.586;2023-06-14T09:20:26;3.45;;;2.13;;
38182;SDS011;23991;52.430;10.586;2023-06-14T09:22:55;2.60;;;2.10;;
38182;SDS011;23991;52.430;10.586;2023-06-14T09:25:20;3.20;;;2.20;;
38182;SDS011;23991;52.430;10.586;2023-06-14T09:27:47;3.53;;;2.20;;
38182;SDS011;23991;52.430;10.586;2023-06-14T09:30:13;3.75;;;2.30;;
38182;SDS011;23991;52.430;10.586;2023-06-14T09:32:39;3.78;;;1.90;;
38182;SDS011;23991;52.430;10.586;2023-06-14T09:35:08;4.30;;;2.97;;
38182;SDS011;23991;52.430;10.586;2023-06-14T09:37:35;4.20;;;2.30;;
38182;SDS011;23991;52.430;10.586;2023-06-14T09:40:02;3.22;;;2.10;;
38182;SDS011;23991;52.430;10.586;2023-06-14T09:42:28;6.43;;;2.35;;
38182;SDS011;23991;52.430;10.586;2023-06-14T09:44:55;5.18;;;2.50;;
38182;SDS011;23991;52.430;10.586;2023-06-14T09:47:21;4.43;;;2.58;;
38182;SDS011;23991;52.430;10.586;2023-06-14T09:49:48;3.75;;;2.25;;
38182;SDS011;23991;52.430;10.586;2023-06-14T09:52:17;2.90;;;1.90;;
38182;SDS011;23991;52.430;10.586;2023-06-14T09:54:44;5.35;;;2.42;;
38182;SDS011;23991;52.430;10.586;2023-06-14T09:57:12;3.20;;;2.40;;
38182;SDS011;23991;52.430;10.586;2023-06-14T09:59:42;3.38;;;2.25;;
38182;SDS011;23991;52.430;10.586;2023-06-14T10:02:22;5.32;;;2.28;;
38182;SDS011;23991;52.430;10.586;2023-06-14T10:05:04;5.05;;;2.60;;
38182;SDS011;23991;52.430;10.586;2023-06-14T10:10:18;6.60;;;2.60;;
38182;SDS011;23991;52.430;10.586;2023-06-14T10:12:44;4.65;;;2.60;;
38182;SDS011;23991;52.430;10.586;2023-06-14T10:15:10;7.28;;;2.80;;
38182;SDS011;23991;52.430;10.586;2023-06-14T10:17:47;4.03;;;2.70;;
38182;SDS011;23991;52.430;10.586;2023-06-14T10:23:24;5.13;;;2.80;;
38182;SDS011;23991;52.430;10.586;2023-06-14T10:25:49;3.90;;;2.70;;
38182;SDS011;23991;52.430;10.586;2023-06-14T10:28:20;5.75;;;3.22;;
38182;SDS011;23991;52.430;10.586;2023-06-14T10:31:05;6.18;;;3.03;;
38182;SDS011;23991;52.430;10.586;2023-06-14T10:33:39;5.28;;;2.83;;
38182;SDS011;23991;52.430;10.586;2023-06-14T10:36:30;7.07;;;2.92;;
38182;SDS011;23991;52.430;10.586;2023-06-14T10:38:58;5.25;;;2.85;;
38182;SDS011;23991;52.430;10.586;2023-06-14T10:41:26;6.80;;;2.72;;
38182;SDS011;23991;52.430;10.586;2023-06-14T10:44:02;5.20;;;2.87;;
38182;SDS011;23991;52.430;10.586;2023-06-14T10:46:35;6.80;;;3.15;;
38182;SDS011;23991;52.430;10.586;2023-06-14T10:49:01;3.67;;;2.88;;
38182;SDS011;23991;52.430;10.586;2023-06-14T10:51:29;6.60;;;3.30;;
38182;SDS011;23991;52.430;10.586;2023-06-14T10:53:55;5.47;;;2.97;;
38182;SDS011;23991;52.430;10.586;2023-06-14T10:56:26;4.80;;;3.03;;
38182;SDS011;23991;52.430;10.586;2023-06-14T11:01:23;4.32;;;2.63;;
38182;SDS011;23991;52.430;10.586;2023-06-14T11:04:00;5.15;;;2.65;;
38182;SDS011;23991;52.430;10.586;2023-06-14T11:12:09;6.57;;;2.85;;
38182;SDS011;23991;52.430;10.586;2023-06-14T11:14:38;5.18;;;3.10;;
38182;SDS011;23991;52.430;10.586;2023-06-14T11:17:05;5.97;;;2.65;;
38182;SDS011;23991;52.430;10.586;2023-06-14T11:19:30;5.28;;;3.15;;
38182;SDS011;23991;52.430;10.586;2023-06-14T11:21:56;6.45;;;2.97;;
38182;SDS011;23991;52.430;10.586;2023-06-14T11:24:22;7.70;;;3.20;;
38182;SDS011;23991;52.430;10.586;2023-06-14T11:26:47;3.45;;;2.70;;
38182;SDS011;23991;52.430;10.586;2023-06-14T11:29:15;6.00;;;2.92;;
38182;SDS011;23991;52.430;10.586;2023-06-14T11:31:44;5.80;;;2.85;;
38182;SDS011;23991;52.430;10.586;2023-06-14T11:34:11;5.10;;;2.42;;
38182;SDS011;23991;52.430;10.586;2023-06-14T11:36:38;3.92;;;2.63;;
38182;SDS011;23991;52.430;10.586;2023-06-14T11:39:04;6.30;;;3.05;;
38182;SDS011;23991;52.430;10.586;2023-06-14T11:41:44;4.60;;;2.88;;
38182;SDS011;23991;52.430;10.586;2023-06-14T11:44:10;5.87;;;2.60;;
38182;SDS011;23991;52.430;10.586;2023-06-14T11:46:36;5.97;;;2.90;;
38182;SDS011;23991;52.430;10.586;2023-06-14T11:49:02;4.28;;;3.13;;
38182;SDS011;23991;52.430;10.586;2023-06-14T11:51:32;9.32;;;3.17;;
38182;SDS011;23991;52.430;10.586;2023-06-14T11:54:00;6.30;;;2.90;;
38182;SDS011;23991;52.430;10.586;2023-06-14T11:56:30;4.68;;;2.72;;
38182;SDS011;23991;52.430;10.586;2023-06-14T11:58:57;4.97;;;3.10;;
38182;SDS011;23991;52.430;10.586;2023-06-14T12:01:22;6.97;;;2.80;;
38182;SDS011;23991;52.430;10.586;2023-06-14T12:03:49;5.85;;;3.45;;
38182;SDS011;23991;52.430;10.586;2023-06-14T12:06:15;6.50;;;2.83;;
38182;SDS011;23991;52.430;10.586;2023-06-14T12:08:43;5.05;;;3.00;;
38182;SDS011;23991;52.430;10.586;2023-06-14T12:11:11;8.07;;;2.90;;
38182;SDS011;23991;52.430;10.586;2023-06-14T12:13:38;5.53;;;2.72;;
38182;SDS011;23991;52.430;10.586;2023-06-14T12:16:06;7.43;;;3.28;;
38182;SDS011;23991;52.430;10.586;2023-06-14T12:18:34;13.00;;;3.50;;
38182;SDS011;23991;52.430;10.586;2023-06-14T12:21:00;5.05;;;2.85;;
38182;SDS011;23991;52.430;10.586;2023-06-14T12:23:27;5.75;;;2.92;;
38182;SDS011;23991;52.430;10.586;2023-06-14T12:26:13;5.18;;;3.38;;
38182;SDS011;23991;52.430;10.586;2023-06-14T12:28:41;4.10;;;2.65;;
38182;SDS011;23991;52.430;10.586;2023-06-14T12:31:14;4.47;;;2.70;;
38182;SDS011;23991;52.430;10.586;2023-06-14T12:33:41;7.47;;;2.97;;
38182;SDS011;23991;52.430;10.586;2023-06-14T12:36:07;9.82;;;3.80;;
38182;SDS011;23991;52.430;10.586;2023-06-14T12:38:34;4.85;;;2.90;;
38182;SDS011;23991;52.430;10.586;2023-06-14T12:41:01;6.45;;;3.50;;
38182;SDS011;23991;52.430;10.586;2023-06-14T12:43:27;4.30;;;3.13;;
38182;SDS011;23991;52.430;10.586;2023-06-14T12:45:52;5.95;;;2.95;;
38182;SDS011;23991;52.430;10.586;2023-06-14T12:48:18;5.65;;;2.60;;
38182;SDS011;23991;52.430;10.586;2023-06-14T12:50:44;5.28;;;2.60;;
38182;SDS011;23991;52.430;10.586;2023-06-14T12:53:10;6.43;;;2.88;;
38182;SDS011;23991;52.430;10.586;2023-06-14T12:55:39;7.75;;;3.22;;
38182;SDS011;23991;52.430;10.586;2023-06-14T12:58:04;4.28;;;2.70;;
38182;SDS011;23991;52.430;10.586;2023-06-14T13:00:30;5.05;;;2.95;;
38182;SDS011;23991;52.430;10.586;2023-06-14T13:02:56;4.78;;;2.42;;
38182;SDS011;23991;52.430;10.586;2023-06-14T13:05:22;5.28;;;2.83;;
38182;SDS011;23991;52.430;10.586;2023-06-14T13:07:48;7.35;;;3.42;;
38182;SDS011;23991;52.430;10.586;2023-06-14T13:10:14;4.65;;;2.72;;
38182;SDS011;23991;52.430;10.586;2023-06-14T13:12:39;6.70;;;3.00;;
38182;SDS011;23991;52.430;10.586;2023-06-14T13:15:05;5.75;;;3.00;;
38182;SDS011;23991;52.430;10.586;2023-06-14T13:17:32;6.90;;;3.00;;
38182;SDS011;23991;52.430;10.586;2023-06-14T13:20:03;6.72;;;3.10;;
38182;SDS011;23991;52.430;10.586;2023-06-14T13:22:35;8.55;;;2.90;;
38182;SDS011;23991;52.430;10.586;2023-06-14T13:25:01;5.88;;;3.05;;
38182;SDS011;23991;52.430;10.586;2023-06-14T13:27:28;6.63;;;3.25;;
38182;SDS011;23991;52.430;10.586;2023-06-14T13:29:54;6.43;;;2.90;;
38182;SDS011;23991;52.430;10.586;2023-06-14T13:32:21;4.97;;;3.00;;
38182;SDS011;23991;52.430;10.586;2023-06-14T13:34:47;4.43;;;2.88;;
38182;SDS011;23991;52.430;10.586;2023-06-14T13:37:13;4.20;;;3.08;;
38182;SDS011;23991;52.430;10.586;2023-06-14T13:39:39;8.45;;;3.35;;
38182;SDS011;23991;52.430;10.586;2023-06-14T13:42:05;6.45;;;3.20;;
38182;SDS011;23991;52.430;10.586;2023-06-14T13:44:30;5.30;;;3.00;;
38182;SDS011;23991;52.430;10.586;2023-06-14T13:46:56;5.90;;;3.00;;
38182;SDS011;23991;52.430;10.586;2023-06-14T13:49:21;8.57;;;3.00;;
38182;SDS011;23991;52.430;10.586;2023-06-14T13:51:47;7.28;;;3.08;;
38182;SDS011;23991;52.430;10.586;2023-06-14T13:54:13;9.15;;;3.58;;
38182;SDS011;23991;52.430;10.586;2023-06-14T13:56:40;5.82;;;3.30;;
38182;SDS011;23991;52.430;10.586;2023-06-14T13:59:06;4.60;;;3.20;;
38182;SDS011;23991;52.430;10.586;2023-06-14T14:01:31;4.30;;;3.13;;
38182;SDS011;23991;52.430;10.586;2023-06-14T14:03:57;8.68;;;3.53;;
38182;SDS011;23991;52.430;10.586;2023-06-14T14:06:23;6.38;;;3.10;;
38182;SDS011;23991;52.430;10.586;2023-06-14T14:08:49;8.00;;;3.22;;
38182;SDS011;23991;52.430;10.586;2023-06-14T14:11:14;7.47;;;3.25;;
38182;SDS011;23991;52.430;10.586;2023-06-14T14:13:41;4.63;;;3.40;;
38182;SDS011;23991;52.430;10.586;2023-06-14T14:16:07;7.13;;;3.20;;
38182;SDS011;23991;52.430;10.586;2023-06-14T14:18:33;5.35;;;3.00;;
38182;SDS011;23991;52.430;10.586;2023-06-14T14:20:58;5.85;;;2.80;;
38182;SDS011;23991;52.430;10.586;2023-06-14T14:23:25;8.90;;;3.28;;
38182;SDS011;23991;52.430;10.586;2023-06-14T14:25:51;6.82;;;3.30;;
38182;SDS011;23991;52.430;10.586;2023-06-14T14:28:17;4.35;;;3.00;;
38182;SDS011;23991;52.430;10.586;2023-06-14T14:30:45;7.30;;;3.08;;
38182;SDS011;23991;52.430;10.586;2023-06-14T14:33:12;6.72;;;2.90;;
38182;SDS011;23991;52.430;10.586;2023-06-14T14:35:42;6.20;;;3.38;;
38182;SDS011;23991;52.430;10.586;2023-06-14T14:38:09;6.22;;;3.30;;
38182;SDS011;23991;52.430;10.586;2023-06-14T14:40:34;8.45;;;3.25;;
38182;SDS011;23991;52.430;10.586;2023-06-14T14:43:00;5.93;;;3.17;;
38182;SDS011;23991;52.430;10.586;2023-06-14T14:45:25;5.80;;;3.20;;
38182;SDS011;23991;52.430;10.586;2023-06-14T14:47:52;6.65;;;3.40;;
38182;SDS011;23991;52.430;10.586;2023-06-14T14:50:18;7.40;;;3.15;;
38182;SDS011;23991;52.430;10.586;2023-06-14T14:52:43;8.52;;;3.63;;